createdAt,value
2018-11-29T00:00:39.480Z,-5.60
2018-11-29T00:03:09.883Z,-5.50
2018-11-29T00:05:43.995Z,-5.60
2018-11-29T00:08:18.393Z,-5.60
2018-11-29T00:10:46.643Z,-5.60
2018-11-29T00:13:14.704Z,-5.60
2018-11-29T00:15:42.735Z,-5.60
2018-11-29T00:18:13.210Z,-5.60
2018-11-29T00:20:41.179Z,-5.60
2018-11-29T00:23:09.225Z,-5.50
2018-11-29T00:25:37.295Z,-5.60
2018-11-29T00:28:06.033Z,-5.60
2018-11-29T00:30:34.267Z,-5.60
2018-11-29T00:33:02.338Z,-5.70
2018-11-29T00:35:30.424Z,-5.70
2018-11-29T00:37:58.555Z,-5.70
2018-11-29T00:40:27.918Z,-5.70
2018-11-29T00:42:56.117Z,-5.70
2018-11-29T00:45:24.159Z,-5.70
2018-11-29T00:47:52.351Z,-5.60
2018-11-29T00:50:20.780Z,-5.70
2018-11-29T00:52:52.178Z,-5.70
2018-11-29T00:55:21.759Z,-5.70
2018-11-29T00:57:50.054Z,-5.70
2018-11-29T01:00:20.244Z,-5.70
2018-11-29T01:02:48.564Z,-5.70
2018-11-29T01:05:20.496Z,-5.80
2018-11-29T01:07:49.542Z,-5.80
2018-11-29T01:10:18.110Z,-5.80
2018-11-29T01:12:46.886Z,-5.80
2018-11-29T01:15:17.942Z,-5.80
2018-11-29T01:17:47.149Z,-5.80
2018-11-29T01:20:16.923Z,-5.80
2018-11-29T01:22:44.938Z,-5.90
2018-11-29T01:25:14.155Z,-5.90
2018-11-29T01:27:43.767Z,-5.90
2018-11-29T01:30:13.094Z,-5.90
2018-11-29T01:32:41.116Z,-5.90
2018-11-29T01:35:10.958Z,-5.90
2018-11-29T01:37:38.999Z,-6.00
2018-11-29T01:40:10.028Z,-6.00
2018-11-29T01:42:37.966Z,-6.00
2018-11-29T01:45:05.991Z,-6.00
2018-11-29T01:47:33.979Z,-6.00
2018-11-29T01:50:01.954Z,-6.00
2018-11-29T01:52:29.904Z,-6.00
2018-11-29T01:54:57.827Z,-5.80
2018-11-29T01:57:25.808Z,-5.90
2018-11-29T01:59:53.839Z,-5.90
2018-11-29T02:02:21.767Z,-5.90
2018-11-29T02:04:50.062Z,-5.90
2018-11-29T02:07:24.735Z,-5.90
2018-11-29T02:09:57.283Z,-5.90
2018-11-29T02:12:25.292Z,-5.80
2018-11-29T02:14:53.235Z,-5.80
2018-11-29T02:17:21.215Z,-5.80
2018-11-29T02:19:49.142Z,-5.80
2018-11-29T02:22:17.114Z,-5.80
2018-11-29T02:24:45.191Z,-5.70
2018-11-29T02:27:13.152Z,-5.70
2018-11-29T02:29:41.147Z,-5.70
2018-11-29T02:32:09.176Z,-5.70
2018-11-29T02:34:37.170Z,-5.70
2018-11-29T02:37:05.405Z,-5.70
2018-11-29T02:39:33.439Z,-5.70
2018-11-29T02:42:01.383Z,-5.70
2018-11-29T02:44:29.387Z,-5.70
2018-11-29T02:46:57.518Z,-5.80
2018-11-29T02:49:25.480Z,-5.80
2018-11-29T02:51:53.411Z,-5.80
2018-11-29T02:54:21.650Z,-5.80
2018-11-29T02:56:49.628Z,-5.90
2018-11-29T02:59:17.568Z,-6.00
2018-11-29T03:01:47.873Z,-6.00
2018-11-29T03:04:17.440Z,-6.00
2018-11-29T03:06:45.400Z,-6.00
2018-11-29T03:09:13.380Z,-6.10
2018-11-29T03:11:41.415Z,-6.10
2018-11-29T03:14:09.462Z,-6.10
2018-11-29T03:16:37.476Z,-6.20
2018-11-29T03:19:05.863Z,-6.20
2018-11-29T03:21:33.909Z,-6.10
2018-11-29T03:24:02.014Z,-6.20
2018-11-29T03:26:30.092Z,-6.30
2018-11-29T03:28:59.604Z,-6.20
2018-11-29T03:31:27.627Z,-6.20
2018-11-29T03:33:55.557Z,-6.20
2018-11-29T03:36:23.585Z,-6.10
2018-11-29T03:38:51.626Z,-6.10
2018-11-29T03:41:19.596Z,-6.20
2018-11-29T03:43:47.575Z,-6.10
2018-11-29T03:46:15.506Z,-6.20
2018-11-29T03:48:43.427Z,-6.20
2018-11-29T03:51:11.360Z,-6.20
2018-11-29T03:53:39.352Z,-6.30
2018-11-29T03:56:07.310Z,-6.30
2018-11-29T03:58:35.571Z,-6.30
2018-11-29T04:01:03.591Z,-6.30
2018-11-29T04:03:31.640Z,-6.40
2018-11-29T04:05:59.732Z,-6.40
2018-11-29T04:08:27.681Z,-6.40
2018-11-29T04:10:55.770Z,-6.40
2018-11-29T04:13:23.730Z,-6.50
2018-11-29T04:15:51.648Z,-6.50
2018-11-29T04:18:19.583Z,-6.40
2018-11-29T04:20:47.586Z,-6.40
2018-11-29T04:23:15.595Z,-6.50
2018-11-29T04:25:43.523Z,-6.50
2018-11-29T04:28:11.467Z,-6.60
2018-11-29T04:30:40.015Z,-6.60
2018-11-29T04:33:07.923Z,-6.60
2018-11-29T04:35:35.860Z,-6.60
2018-11-29T04:38:04.098Z,-6.60
2018-11-29T04:40:32.599Z,-6.70
2018-11-29T04:43:00.645Z,-6.70
2018-11-29T04:45:48.319Z,-6.70
2018-11-29T04:48:16.383Z,-6.70
2018-11-29T04:50:44.352Z,-6.70
2018-11-29T04:53:12.246Z,-6.80
2018-11-29T04:55:40.148Z,-6.80
2018-11-29T04:58:08.183Z,-6.80
2018-11-29T05:00:36.887Z,-6.80
2018-11-29T05:03:05.256Z,-6.70
2018-11-29T05:05:33.266Z,-6.80
2018-11-29T05:08:01.151Z,-6.90
2018-11-29T05:10:29.063Z,-6.90
2018-11-29T05:12:57.009Z,-7.00
2018-11-29T05:15:24.981Z,-7.00
2018-11-29T05:17:52.928Z,-6.90
2018-11-29T05:20:20.850Z,-6.90
2018-11-29T05:22:48.792Z,-6.90
2018-11-29T05:25:17.122Z,-7.00
2018-11-29T05:27:44.746Z,-6.90
2018-11-29T05:30:13.683Z,-6.90
2018-11-29T05:32:41.778Z,-6.90
2018-11-29T05:35:11.051Z,-6.90
2018-11-29T05:37:39.027Z,-6.90
2018-11-29T05:40:10.213Z,-6.90
2018-11-29T05:42:38.531Z,-6.90
2018-11-29T05:45:07.826Z,-7.00
2018-11-29T05:47:35.820Z,-7.00
2018-11-29T05:50:06.105Z,-7.00
2018-11-29T05:55:10.615Z,-7.00
2018-11-29T05:57:38.555Z,-6.90
2018-11-29T06:00:10.373Z,-7.00
2018-11-29T06:02:38.451Z,-6.90
2018-11-29T06:05:08.307Z,-6.90
2018-11-29T06:07:36.606Z,-7.00
2018-11-29T06:10:04.875Z,-7.00
2018-11-29T06:12:33.669Z,-6.90
2018-11-29T06:15:01.930Z,-6.90
2018-11-29T06:17:29.877Z,-6.90
2018-11-29T06:19:57.829Z,-6.90
2018-11-29T06:22:26.082Z,-6.90
2018-11-29T06:24:54.038Z,-6.90
2018-11-29T06:27:22.215Z,-6.90
2018-11-29T06:29:50.204Z,-6.90
2018-11-29T06:32:18.232Z,-7.00
2018-11-29T06:34:46.135Z,-6.90
2018-11-29T06:37:16.462Z,-6.70
2018-11-29T06:39:44.341Z,-6.80
2018-11-29T06:42:12.346Z,-6.80
2018-11-29T06:44:40.335Z,-6.80
2018-11-29T06:47:08.226Z,-6.70
2018-11-29T06:49:36.198Z,-6.70
2018-11-29T06:52:05.187Z,-6.60
2018-11-29T06:54:33.223Z,-6.50
2018-11-29T06:57:01.148Z,-6.40
2018-11-29T06:59:29.310Z,-6.40
2018-11-29T07:01:57.240Z,-6.30
2018-11-29T07:04:25.339Z,-6.30
2018-11-29T07:06:56.521Z,-6.20
2018-11-29T07:09:24.421Z,-6.10
2018-11-29T07:11:52.443Z,-6.10
2018-11-29T07:14:20.824Z,-6.00
2018-11-29T07:16:48.710Z,-6.10
2018-11-29T07:19:16.658Z,-5.70
2018-11-29T07:21:51.475Z,-5.60
2018-11-29T07:24:19.679Z,-5.40
2018-11-29T07:26:49.418Z,-5.20
2018-11-29T07:29:17.278Z,-5.10
2018-11-29T07:31:45.587Z,-4.80
2018-11-29T07:34:13.723Z,-4.60
2018-11-29T07:36:41.715Z,-4.30
2018-11-29T07:39:10.060Z,-3.80
2018-11-29T07:41:39.464Z,-2.80
2018-11-29T07:44:11.161Z,-1.50
2018-11-29T07:46:39.290Z,-0.20
2018-11-29T07:49:07.346Z,1.00
2018-11-29T07:51:35.558Z,1.90
2018-11-29T07:54:03.607Z,2.80
2018-11-29T07:56:31.509Z,3.40
2018-11-29T07:58:59.489Z,4.10
2018-11-29T08:01:28.705Z,5.00
2018-11-29T08:03:56.763Z,5.70
2018-11-29T08:06:24.655Z,6.40
2018-11-29T08:08:52.696Z,6.90
2018-11-29T08:11:20.901Z,7.30
2018-11-29T08:13:48.798Z,8.00
2018-11-29T08:16:16.782Z,8.60
2018-11-29T08:18:44.690Z,9.10
2018-11-29T08:21:12.598Z,9.40
2018-11-29T08:23:40.536Z,9.90
2018-11-29T08:26:08.459Z,10.30
2018-11-29T08:28:39.287Z,10.90
2018-11-29T08:31:07.478Z,11.40
2018-11-29T08:33:40.864Z,11.80
2018-11-29T08:36:10.201Z,12.20
2018-11-29T08:38:39.214Z,12.70
2018-11-29T08:41:07.758Z,13.30
2018-11-29T08:43:36.131Z,13.80
2018-11-29T08:46:04.228Z,14.20
2018-11-29T08:48:32.507Z,14.70
2018-11-29T08:53:34.884Z,15.80
2018-11-29T08:56:08.743Z,16.00
2018-11-29T08:58:36.997Z,16.50
2018-11-29T09:01:06.329Z,17.10
2018-11-29T09:03:34.224Z,16.80
2018-11-29T09:06:02.179Z,17.10
2018-11-29T09:08:36.860Z,17.70
2018-11-29T09:11:05.320Z,17.80
2018-11-29T09:13:33.528Z,18.20
2018-11-29T09:16:01.434Z,18.60
2018-11-29T09:18:31.336Z,19.10
2018-11-29T09:20:59.379Z,19.50
2018-11-29T09:23:27.382Z,19.90
2018-11-29T09:25:56.251Z,19.50
2018-11-29T09:28:24.379Z,20.30
2018-11-29T09:30:54.064Z,19.80
2018-11-29T09:33:22.117Z,20.00
2018-11-29T09:35:50.043Z,20.80
2018-11-29T09:38:21.717Z,21.70
2018-11-29T09:40:56.247Z,21.40
2018-11-29T09:43:24.233Z,22.20
2018-11-29T09:45:52.138Z,23.00
2018-11-29T09:48:20.031Z,23.80
2018-11-29T09:50:48.008Z,23.50
2018-11-29T09:53:15.979Z,23.20
2018-11-29T09:55:43.988Z,23.80
2018-11-29T09:58:14.104Z,24.10
2018-11-29T10:00:42.531Z,24.40
2018-11-29T10:03:15.019Z,24.80
2018-11-29T10:05:44.501Z,25.20
2018-11-29T10:08:15.239Z,25.00
2018-11-29T10:10:43.170Z,25.30
2018-11-29T10:13:11.401Z,25.70
2018-11-29T10:15:39.460Z,25.90
2018-11-29T10:18:08.619Z,26.70
2018-11-29T10:20:36.537Z,26.80
2018-11-29T10:23:05.959Z,27.20
2018-11-29T10:25:34.061Z,27.30
2018-11-29T10:28:07.658Z,26.50
2018-11-29T10:30:47.196Z,26.30
2018-11-29T10:33:15.625Z,27.00
2018-11-29T10:35:44.455Z,27.80
2018-11-29T10:38:12.359Z,27.50
2018-11-29T10:40:41.780Z,26.50
2018-11-29T10:43:10.187Z,26.40
2018-11-29T10:45:38.183Z,26.60
2018-11-29T10:48:11.335Z,25.30
2018-11-29T10:50:39.444Z,24.90
2018-11-29T10:53:08.632Z,23.80
2018-11-29T10:55:36.987Z,24.30
2018-11-29T10:58:06.691Z,25.00
2018-11-29T11:00:40.136Z,25.80
2018-11-29T11:03:13.699Z,25.70
2018-11-29T11:05:45.802Z,24.20
2018-11-29T11:08:13.997Z,23.80
2018-11-29T11:10:41.872Z,24.50
2018-11-29T11:13:09.808Z,25.00
2018-11-29T11:15:38.167Z,26.10
2018-11-29T11:18:07.741Z,27.00
2018-11-29T11:20:37.452Z,27.00
2018-11-29T11:23:08.920Z,26.60
2018-11-29T11:25:38.400Z,26.10
2018-11-29T11:28:08.075Z,26.90
2018-11-29T11:30:39.621Z,27.30
2018-11-29T11:33:07.577Z,27.50
2018-11-29T11:35:35.555Z,27.80
2018-11-29T11:38:03.448Z,27.90
2018-11-29T11:40:31.425Z,28.30
2018-11-29T11:42:59.331Z,28.50
2018-11-29T11:45:27.519Z,28.20
2018-11-29T11:48:03.150Z,28.00
2018-11-29T11:50:26.003Z,27.30
2018-11-29T11:52:55.048Z,27.80
2018-11-29T11:55:29.959Z,28.00
2018-11-29T11:57:52.754Z,27.70
2018-11-29T12:00:25.193Z,26.00
2018-11-29T12:03:07.405Z,25.50
2018-11-29T12:05:35.967Z,26.50
2018-11-29T12:08:06.199Z,27.30
2018-11-29T12:10:35.323Z,26.80
2018-11-29T12:13:03.400Z,27.20
2018-11-29T12:15:31.500Z,27.60
2018-11-29T12:17:59.601Z,26.40
2018-11-29T12:20:27.571Z,25.60
2018-11-29T12:22:55.547Z,25.20
2018-11-29T12:25:23.488Z,25.60
2018-11-29T12:27:52.133Z,24.60
2018-11-29T12:30:24.599Z,24.60
2018-11-29T12:32:56.555Z,25.50
2018-11-29T12:35:24.883Z,25.30
2018-11-29T12:37:53.313Z,24.90
2018-11-29T12:40:21.053Z,25.30
2018-11-29T12:42:48.958Z,25.90
2018-11-29T12:45:17.157Z,25.30
2018-11-29T12:47:45.368Z,24.00
2018-11-29T12:50:18.923Z,24.00
2018-11-29T12:52:47.128Z,24.50
2018-11-29T12:55:16.412Z,24.50
2018-11-29T12:57:44.472Z,24.00
2018-11-29T13:00:17.695Z,23.90
2018-11-29T13:02:49.903Z,24.10
2018-11-29T13:05:18.352Z,24.30
2018-11-29T13:07:46.307Z,23.70
2018-11-29T13:10:16.145Z,21.80
2018-11-29T13:12:44.072Z,20.70
2018-11-29T13:15:16.439Z,20.40
2018-11-29T13:17:44.594Z,20.20
2018-11-29T13:20:14.010Z,19.90
2018-11-29T13:22:42.020Z,19.30
2018-11-29T13:25:14.540Z,19.50
2018-11-29T13:27:42.450Z,19.10
2018-11-29T13:30:13.834Z,18.30
2018-11-29T13:32:43.906Z,17.80
2018-11-29T13:35:16.264Z,17.50
2018-11-29T13:37:49.564Z,17.40
2018-11-29T13:42:45.470Z,17.40
2018-11-29T13:45:13.688Z,16.90
2018-11-29T13:47:42.031Z,17.00
2018-11-29T13:50:14.041Z,16.90
2018-11-29T13:52:42.536Z,17.00
2018-11-29T13:55:12.777Z,15.90
2018-11-29T13:57:42.262Z,15.30
2018-11-29T14:00:25.821Z,15.30
2018-11-29T14:03:01.103Z,14.40
2018-11-29T14:05:29.092Z,13.80
2018-11-29T14:08:03.128Z,13.40
2018-11-29T14:10:31.624Z,13.30
2018-11-29T14:12:59.671Z,12.80
2018-11-29T14:15:28.365Z,12.50
2018-11-29T14:17:57.194Z,12.10
2018-11-29T14:20:25.339Z,11.30
2018-11-29T14:22:53.334Z,10.50
2018-11-29T14:25:21.515Z,9.50
2018-11-29T14:27:51.364Z,8.70
2018-11-29T14:30:22.503Z,7.30
2018-11-29T14:32:51.058Z,6.50
2018-11-29T14:35:19.131Z,5.80
2018-11-29T14:37:47.035Z,5.10
2018-11-29T14:40:18.503Z,4.70
2018-11-29T14:42:46.434Z,4.10
2018-11-29T14:45:16.047Z,3.70
2018-11-29T14:47:44.244Z,3.20
2018-11-29T14:50:20.729Z,2.90
2018-11-29T14:52:49.509Z,2.50
2018-11-29T14:55:17.455Z,2.20
2018-11-29T14:57:45.467Z,2.10
2018-11-29T15:00:13.814Z,1.80
2018-11-29T15:02:42.120Z,1.50
2018-11-29T15:05:19.272Z,1.30
2018-11-29T15:10:21.400Z,0.90
2018-11-29T15:12:49.275Z,0.70
2018-11-29T15:15:17.207Z,0.50
2018-11-29T15:17:46.251Z,0.30
2018-11-29T15:20:20.071Z,0.20
2018-11-29T15:22:48.041Z,0.00
2018-11-29T15:25:16.036Z,-0.10
2018-11-29T15:27:44.007Z,-0.30
2018-11-29T15:30:14.624Z,-0.40
2018-11-29T15:32:42.567Z,-0.60
2018-11-29T15:35:10.584Z,-0.70
2018-11-29T15:37:38.566Z,-0.80
2018-11-29T15:40:12.963Z,-0.90
2018-11-29T15:42:44.478Z,-1.00
2018-11-29T15:45:19.916Z,-1.10
2018-11-29T15:47:48.463Z,-1.10
2018-11-29T15:50:17.017Z,-1.20
2018-11-29T15:52:45.011Z,-1.30
2018-11-29T15:55:15.153Z,-1.30
2018-11-29T15:57:43.940Z,-1.40
2018-11-29T16:00:15.870Z,-1.50
2018-11-29T16:02:44.807Z,-1.50
2018-11-29T16:05:12.744Z,-1.60
2018-11-29T16:07:40.922Z,-1.70
2018-11-29T16:10:13.074Z,-1.80
2018-11-29T16:12:41.264Z,-1.80
2018-11-29T16:15:14.181Z,-1.90
2018-11-29T16:17:42.515Z,-2.00
2018-11-29T16:20:13.302Z,-2.10
2018-11-29T16:22:41.348Z,-2.20
2018-11-29T16:25:10.807Z,-2.30
2018-11-29T16:27:38.809Z,-2.40
2018-11-29T16:30:17.756Z,-2.50
2018-11-29T16:32:45.699Z,-2.60
2018-11-29T16:35:13.600Z,-2.70
2018-11-29T16:37:41.553Z,-2.80
2018-11-29T16:40:09.504Z,-3.00
2018-11-29T16:42:37.516Z,-3.00
2018-11-29T16:45:09.541Z,-3.10
2018-11-29T16:47:37.511Z,-3.20
2018-11-29T16:50:08.279Z,-3.30
2018-11-29T16:52:36.230Z,-3.30
2018-11-29T16:55:05.518Z,-3.40
2018-11-29T16:57:33.554Z,-3.50
2018-11-29T17:00:01.592Z,-3.50
2018-11-29T17:02:29.535Z,-3.40
2018-11-29T17:05:01.532Z,-3.40
2018-11-29T17:07:29.776Z,-3.40
2018-11-29T17:09:58.455Z,-3.40
2018-11-29T17:12:26.749Z,-3.40
2018-11-29T17:14:54.715Z,-3.50
2018-11-29T17:17:22.663Z,-3.50
2018-11-29T17:22:25.252Z,-3.50
2018-11-29T17:24:53.234Z,-3.50
2018-11-29T17:27:21.180Z,-3.60
2018-11-29T17:29:49.092Z,-3.60
2018-11-29T17:32:17.339Z,-3.60
2018-11-29T17:34:45.372Z,-3.60
2018-11-29T17:37:13.467Z,-3.70
2018-11-29T17:39:41.781Z,-3.70
2018-11-29T17:42:09.843Z,-3.70
2018-11-29T17:44:37.759Z,-3.80
2018-11-29T17:47:09.175Z,-3.80
2018-11-29T17:49:37.151Z,-3.90
2018-11-29T17:52:05.509Z,-3.90
2018-11-29T17:54:34.146Z,-4.00
2018-11-29T17:57:02.163Z,-4.00
2018-11-29T17:59:30.163Z,-4.00
2018-11-29T18:01:58.130Z,-4.00
2018-11-29T18:04:26.084Z,-4.00
2018-11-29T18:06:54.082Z,-4.00
2018-11-29T18:09:22.154Z,-4.00
2018-11-29T18:11:50.112Z,-4.00
2018-11-29T18:14:18.751Z,-4.00
2018-11-29T18:16:46.706Z,-4.00
2018-11-29T18:19:14.636Z,-4.00
2018-11-29T18:21:43.215Z,-4.00
2018-11-29T18:24:10.944Z,-4.10
2018-11-29T18:26:39.807Z,-4.10
2018-11-29T18:29:08.009Z,-4.10
2018-11-29T18:31:35.881Z,-4.20
2018-11-29T18:34:03.887Z,-4.20
2018-11-29T18:39:09.094Z,-4.20
2018-11-29T18:41:37.182Z,-4.20
2018-11-29T18:44:05.943Z,-4.20
2018-11-29T18:46:33.897Z,-4.20
2018-11-29T18:49:01.807Z,-4.20
2018-11-29T18:51:29.775Z,-4.20
2018-11-29T18:53:57.795Z,-4.20
2018-11-29T18:56:25.820Z,-4.20
2018-11-29T18:58:54.609Z,-4.20
2018-11-29T19:01:22.531Z,-4.30
2018-11-29T19:03:54.579Z,-4.30
2018-11-29T19:06:22.553Z,-4.30
2018-11-29T19:08:50.476Z,-4.30
2018-11-29T19:11:18.458Z,-4.30
2018-11-29T19:13:46.391Z,-4.30
2018-11-29T19:16:14.342Z,-4.30
2018-11-29T19:18:42.743Z,-4.30
2018-11-29T19:21:10.683Z,-4.30
2018-11-29T19:23:38.683Z,-4.40
2018-11-29T19:26:07.086Z,-4.40
2018-11-29T19:28:35.103Z,-4.50
2018-11-29T19:31:03.177Z,-4.60
2018-11-29T19:33:31.147Z,-4.60
2018-11-29T19:35:59.230Z,-4.70
2018-11-29T19:38:27.215Z,-4.80
2018-11-29T19:40:55.190Z,-4.90
2018-11-29T19:43:23.079Z,-4.90
2018-11-29T19:45:51.049Z,-5.00
2018-11-29T19:48:19.122Z,-5.10
2018-11-29T19:50:47.131Z,-5.20
2018-11-29T19:53:17.903Z,-5.20
2018-11-29T19:55:47.292Z,-5.20
2018-11-29T19:58:15.424Z,-5.20
2018-11-29T20:00:44.517Z,-5.30
2018-11-29T20:06:08.718Z,-5.50
2018-11-29T20:08:36.756Z,-5.50
2018-11-29T20:11:05.216Z,-5.60
2018-11-29T20:13:33.314Z,-5.60
2018-11-29T20:16:01.380Z,-5.70
2018-11-29T20:18:29.712Z,-5.70
2018-11-29T20:23:31.966Z,-5.80
2018-11-29T20:26:00.267Z,-5.90
2018-11-29T20:28:29.183Z,-6.00
2018-11-29T20:30:57.149Z,-6.10
2018-11-29T20:33:26.451Z,-6.10
2018-11-29T20:35:54.411Z,-6.20
2018-11-29T20:38:22.363Z,-6.20
2018-11-29T20:40:50.378Z,-6.30
2018-11-29T20:43:18.305Z,-6.30
2018-11-29T20:45:55.430Z,-6.40
2018-11-29T20:48:26.985Z,-6.40
2018-11-29T20:50:56.562Z,-6.50
2018-11-29T20:53:26.824Z,-6.60
2018-11-29T20:55:54.811Z,-6.70
2018-11-29T20:58:22.847Z,-6.70
2018-11-29T21:00:50.845Z,-6.80
2018-11-29T21:03:19.112Z,-6.90
2018-11-29T21:05:47.152Z,-6.90
2018-11-29T21:08:15.143Z,-6.90
2018-11-29T21:10:43.161Z,-6.90
2018-11-29T21:13:11.397Z,-6.90
2018-11-29T21:15:41.262Z,-7.00
2018-11-29T21:18:12.978Z,-7.00
2018-11-29T21:20:41.979Z,-7.10
2018-11-29T21:29:56.229Z,-7.20
2018-11-29T21:32:27.393Z,-7.30
2018-11-29T21:34:55.661Z,-7.30
2018-11-29T21:37:23.624Z,-7.40
2018-11-29T21:39:51.846Z,-7.40
2018-11-29T21:42:19.839Z,-7.40
2018-11-29T21:44:47.779Z,-7.50
2018-11-29T21:47:15.747Z,-7.40
2018-11-29T21:49:43.960Z,-7.50
2018-11-29T21:52:11.901Z,-7.50
2018-11-29T21:54:39.952Z,-7.50
2018-11-29T21:57:07.915Z,-7.60
2018-11-29T21:59:35.803Z,-7.60
2018-11-29T22:02:03.775Z,-7.60
2018-11-29T22:04:31.757Z,-7.60
2018-11-29T22:07:01.589Z,-7.70
2018-11-29T22:09:29.519Z,-7.70
2018-11-29T22:11:57.678Z,-7.80
2018-11-29T22:14:25.655Z,-7.80
2018-11-29T22:16:53.589Z,-7.90
2018-11-29T22:19:21.627Z,-7.90
2018-11-29T22:21:49.684Z,-7.90
2018-11-29T22:24:17.650Z,-7.90
2018-11-29T22:26:45.933Z,-7.90
2018-11-29T22:29:13.863Z,-7.90
2018-11-29T22:31:41.883Z,-7.90
2018-11-29T22:34:09.825Z,-8.00
2018-11-29T22:36:38.532Z,-7.90
2018-11-29T22:39:08.747Z,-8.00
2018-11-29T22:41:36.686Z,-8.00
2018-11-29T22:44:04.977Z,-7.90
2018-11-29T22:46:32.937Z,-7.90
2018-11-29T22:49:00.843Z,-7.90
2018-11-29T22:51:28.843Z,-7.90
2018-11-29T22:53:56.828Z,-8.00
2018-11-29T22:56:24.772Z,-8.00
2018-11-29T22:58:52.674Z,-8.00
2018-11-29T23:01:25.563Z,-8.00
2018-11-29T23:03:54.504Z,-8.00
2018-11-29T23:06:22.555Z,-8.00
2018-11-29T23:08:50.511Z,-8.00
2018-11-29T23:11:20.389Z,-8.00
2018-11-29T23:13:48.408Z,-8.10
2018-11-29T23:16:19.286Z,-8.10
2018-11-29T23:18:47.387Z,-8.10
2018-11-29T23:21:15.384Z,-8.10
2018-11-29T23:23:43.382Z,-8.20
2018-11-29T23:26:11.415Z,-8.20
2018-11-29T23:28:39.339Z,-8.20
2018-11-29T23:31:08.105Z,-8.20
2018-11-29T23:33:36.055Z,-8.20
2018-11-29T23:36:04.251Z,-8.40
2018-11-29T23:38:32.290Z,-8.20
2018-11-29T23:41:00.292Z,-8.20
2018-11-29T23:43:28.219Z,-8.30
2018-11-29T23:45:56.164Z,-8.30
2018-11-29T23:48:24.078Z,-8.30
2018-11-29T23:50:52.013Z,-8.30
2018-11-29T23:53:21.079Z,-8.40
2018-11-29T23:55:53.191Z,-8.40
2018-11-29T23:58:21.168Z,-8.40
